createdAt,value
2023-03-26T00:00:12.292Z,85
2023-03-26T00:00:42.764Z,85
2023-03-26T00:01:13.629Z,85
2023-03-26T00:01:44.332Z,85
2023-03-26T00:02:15.556Z,85
2023-03-26T00:02:46.561Z,85
2023-03-26T00:03:17.557Z,85
2023-03-26T00:03:48.591Z,85
2023-03-26T00:04:20.341Z,85
2023-03-26T00:04:50.672Z,85
2023-03-26T00:05:22.312Z,85
2023-03-26T00:05:52.435Z,85
2023-03-26T00:06:23.361Z,86
2023-03-26T00:06:54.648Z,85
2023-03-26T00:07:25.626Z,85
2023-03-26T00:07:56.789Z,85
2023-03-26T00:08:27.757Z,85
2023-03-26T00:08:58.742Z,85
2023-03-26T00:09:30.061Z,86
2023-03-26T00:10:01.088Z,86
2023-03-26T00:10:31.662Z,86
2023-03-26T00:11:02.688Z,86
2023-03-26T00:11:33.745Z,86
2023-03-26T00:12:04.543Z,86
2023-03-26T00:12:35.401Z,86
2023-03-26T00:13:06.599Z,86
2023-03-26T00:13:37.504Z,86
2023-03-26T00:14:08.641Z,87
2023-03-26T00:14:39.740Z,87
2023-03-26T00:15:11.108Z,87
2023-03-26T00:15:41.569Z,87
2023-03-26T00:16:12.536Z,87
2023-03-26T00:16:43.790Z,87
2023-03-26T00:17:14.619Z,87
2023-03-26T00:17:45.754Z,87
2023-03-26T00:18:16.239Z,87
2023-03-26T00:18:47.681Z,87
2023-03-26T00:19:18.688Z,88
2023-03-26T00:19:49.929Z,88
2023-03-26T00:20:21.250Z,88
2023-03-26T00:20:51.697Z,88
2023-03-26T00:21:22.999Z,88
2023-03-26T00:21:53.756Z,88
2023-03-26T00:22:24.461Z,88
2023-03-26T00:22:55.720Z,88
2023-03-26T00:23:26.679Z,88
2023-03-26T00:23:57.584Z,88
2023-03-26T00:24:28.618Z,88
2023-03-26T00:24:59.617Z,88
2023-03-26T00:25:30.898Z,88
2023-03-26T00:26:03.663Z,88
2023-03-26T00:26:32.773Z,88
2023-03-26T00:27:06.097Z,88
2023-03-26T00:27:34.584Z,88
2023-03-26T00:28:05.922Z,88
2023-03-26T00:28:36.669Z,88
2023-03-26T00:29:08.216Z,88
2023-03-26T00:29:38.704Z,88
2023-03-26T00:30:10.491Z,88
2023-03-26T00:30:40.418Z,89
2023-03-26T00:31:11.690Z,89
2023-03-26T00:31:42.850Z,89
2023-03-26T00:32:13.642Z,89
2023-03-26T00:32:44.503Z,89
2023-03-26T00:33:15.791Z,89
2023-03-26T00:33:46.623Z,89
2023-03-26T00:34:17.749Z,89
2023-03-26T00:34:48.531Z,89
2023-03-26T00:35:19.885Z,89
2023-03-26T00:35:50.460Z,89
2023-03-26T00:36:22.047Z,89
2023-03-26T00:36:52.506Z,89
2023-03-26T00:37:23.662Z,89
2023-03-26T00:37:54.593Z,89
2023-03-26T00:38:25.764Z,89
2023-03-26T00:38:56.330Z,89
2023-03-26T00:39:27.513Z,89
2023-03-26T00:40:00.818Z,89
2023-03-26T00:40:30.320Z,89
2023-03-26T00:41:00.732Z,89
2023-03-26T00:41:31.644Z,89
2023-03-26T00:42:02.833Z,89
2023-03-26T00:42:33.644Z,90
2023-03-26T00:43:04.545Z,90
2023-03-26T00:43:35.786Z,89
2023-03-26T00:44:06.709Z,89
2023-03-26T00:44:37.474Z,89
2023-03-26T00:45:09.249Z,89
2023-03-26T00:45:39.710Z,89
2023-03-26T00:46:11.211Z,89
2023-03-26T00:46:41.767Z,89
2023-03-26T00:47:12.766Z,89
2023-03-26T00:47:43.451Z,89
2023-03-26T00:48:14.786Z,88
2023-03-26T00:48:46.230Z,88
2023-03-26T00:49:16.688Z,88
2023-03-26T00:49:47.826Z,88
2023-03-26T00:50:19.164Z,88
2023-03-26T00:50:49.852Z,88
2023-03-26T00:51:20.627Z,88
2023-03-26T00:51:51.757Z,88
2023-03-26T00:52:22.428Z,88
2023-03-26T00:52:53.874Z,88
2023-03-26T00:53:24.628Z,89
2023-03-26T00:53:55.679Z,89
2023-03-26T00:54:27.060Z,89
2023-03-26T00:54:57.735Z,89
2023-03-26T00:55:29.348Z,89
2023-03-26T00:55:59.715Z,89
2023-03-26T00:56:30.677Z,89
2023-03-26T00:57:01.874Z,90
2023-03-26T00:57:36.238Z,90
2023-03-26T00:58:03.445Z,90
2023-03-26T00:58:35.889Z,90
2023-03-26T00:59:05.822Z,90
2023-03-26T00:59:38.554Z,90
2023-03-26T01:00:08.109Z,90
2023-03-26T01:00:38.748Z,90
2023-03-26T01:01:09.719Z,90
2023-03-26T01:01:40.795Z,90
2023-03-26T01:02:11.589Z,90
2023-03-26T01:02:42.874Z,89
2023-03-26T01:03:21.896Z,90
2023-03-26T01:03:53.028Z,90
2023-03-26T01:04:15.818Z,90
2023-03-26T01:04:47.129Z,90
2023-03-26T01:05:18.176Z,90
2023-03-26T01:05:48.732Z,90
2023-03-26T01:06:20.187Z,90
2023-03-26T01:06:50.888Z,90
2023-03-26T01:07:21.797Z,89
2023-03-26T01:07:52.866Z,89
2023-03-26T01:08:23.496Z,90
2023-03-26T01:08:54.701Z,89
2023-03-26T01:09:25.738Z,89
2023-03-26T01:09:56.752Z,89
2023-03-26T01:10:28.031Z,89
2023-03-26T01:10:58.708Z,89
2023-03-26T01:11:29.706Z,90
2023-03-26T01:12:01.199Z,90
2023-03-26T01:12:32.181Z,90
2023-03-26T01:13:02.701Z,90
2023-03-26T01:13:33.716Z,90
2023-03-26T01:14:04.548Z,90
2023-03-26T01:14:35.716Z,90
2023-03-26T01:15:07.300Z,90
2023-03-26T01:15:37.731Z,90
2023-03-26T01:16:08.655Z,90
2023-03-26T01:16:39.706Z,90
2023-03-26T01:17:11.031Z,90
2023-03-26T01:17:41.937Z,90
2023-03-26T01:18:13.165Z,90
2023-03-26T01:18:43.967Z,90
2023-03-26T01:19:14.897Z,90
2023-03-26T01:19:46.050Z,90
2023-03-26T01:20:17.203Z,90
2023-03-26T01:20:48.124Z,90
2023-03-26T01:21:18.737Z,90
2023-03-26T01:21:49.864Z,90
2023-03-26T01:22:20.799Z,90
2023-03-26T01:22:51.764Z,90
2023-03-26T01:23:22.970Z,90
2023-03-26T01:23:53.752Z,90
2023-03-26T01:24:24.771Z,90
2023-03-26T01:24:55.862Z,90
2023-03-26T01:25:27.012Z,90
2023-03-26T01:25:57.747Z,91
2023-03-26T01:26:28.820Z,91
2023-03-26T01:26:59.842Z,91
2023-03-26T01:27:30.724Z,91
2023-03-26T01:28:01.783Z,91
2023-03-26T01:28:32.730Z,91
2023-03-26T01:29:05.648Z,90
2023-03-26T01:29:35.054Z,90
2023-03-26T01:30:08.188Z,90
2023-03-26T01:30:37.050Z,90
2023-03-26T01:31:07.746Z,90
2023-03-26T01:31:38.822Z,89
2023-03-26T01:32:09.634Z,89
2023-03-26T01:32:41.029Z,89
2023-03-26T01:33:11.688Z,89
2023-03-26T01:33:43.034Z,89
2023-03-26T01:34:13.865Z,89
2023-03-26T01:34:44.893Z,89
2023-03-26T01:35:16.106Z,89
2023-03-26T01:35:47.111Z,89
2023-03-26T01:36:17.918Z,89
2023-03-26T01:36:49.183Z,89
2023-03-26T01:37:19.924Z,89
2023-03-26T01:37:50.577Z,89
2023-03-26T01:38:21.616Z,89
2023-03-26T01:38:53.004Z,89
2023-03-26T01:39:23.791Z,89
2023-03-26T01:39:54.930Z,89
2023-03-26T01:40:26.706Z,89
2023-03-26T01:40:56.804Z,89
2023-03-26T01:41:27.788Z,89
2023-03-26T01:41:58.890Z,89
2023-03-26T01:42:29.904Z,89
2023-03-26T01:43:00.977Z,89
2023-03-26T01:43:31.875Z,89
2023-03-26T01:44:02.911Z,89
2023-03-26T01:44:33.987Z,89
2023-03-26T01:45:05.338Z,89
2023-03-26T01:45:35.905Z,89
2023-03-26T01:46:07.068Z,89
2023-03-26T01:46:38.480Z,89
2023-03-26T01:47:08.948Z,89
2023-03-26T01:47:39.721Z,89
2023-03-26T01:48:10.682Z,90
2023-03-26T01:48:41.629Z,90
2023-03-26T01:49:13.273Z,90
2023-03-26T01:49:43.629Z,90
2023-03-26T01:50:15.864Z,90
2023-03-26T01:50:45.931Z,90
2023-03-26T01:51:17.092Z,91
2023-03-26T01:51:47.944Z,91
2023-03-26T01:52:18.957Z,90
2023-03-26T01:52:49.780Z,91
2023-03-26T01:53:20.832Z,90
2023-03-26T01:53:51.851Z,90
2023-03-26T01:54:23.267Z,90
2023-03-26T01:54:54.102Z,90
2023-03-26T01:55:25.143Z,90
2023-03-26T01:55:56.014Z,89
2023-03-26T01:56:26.687Z,89
2023-03-26T01:56:57.933Z,89
2023-03-26T01:57:28.865Z,89
2023-03-26T01:57:59.988Z,89
2023-03-26T01:58:31.072Z,88
2023-03-26T01:59:01.751Z,88
2023-03-26T01:59:33.093Z,88
2023-03-26T02:00:04.353Z,89
2023-03-26T02:00:37.345Z,89
2023-03-26T02:01:05.751Z,89
2023-03-26T02:01:38.849Z,89
2023-03-26T02:02:08.492Z,89
2023-03-26T02:02:57.788Z,89
2023-03-26T02:03:40.954Z,90
2023-03-26T02:04:11.827Z,90
2023-03-26T02:04:43.021Z,90
2023-03-26T02:05:14.330Z,90
2023-03-26T02:05:45.060Z,90
2023-03-26T02:06:16.042Z,90
2023-03-26T02:06:47.065Z,89
2023-03-26T02:07:18.470Z,89
2023-03-26T02:07:48.951Z,89
2023-03-26T02:08:20.168Z,89
2023-03-26T02:08:51.026Z,89
2023-03-26T02:09:21.831Z,89
2023-03-26T02:09:52.735Z,89
2023-03-26T02:10:24.063Z,89
2023-03-26T02:10:54.712Z,89
2023-03-26T02:11:56.928Z,88
2023-03-26T02:12:28.203Z,88
2023-03-26T02:12:59.024Z,88
2023-03-26T02:13:30.092Z,88
2023-03-26T02:14:01.023Z,88
2023-03-26T02:14:31.814Z,88
2023-03-26T02:15:03.516Z,88
2023-03-26T02:15:34.910Z,89
2023-03-26T02:16:04.950Z,89
2023-03-26T02:16:35.772Z,89
2023-03-26T02:17:07.019Z,89
2023-03-26T02:17:38.272Z,89
2023-03-26T02:18:08.808Z,89
2023-03-26T02:18:39.739Z,89
2023-03-26T02:19:10.737Z,89
2023-03-26T02:19:41.778Z,88
2023-03-26T02:20:13.288Z,89
2023-03-26T02:20:43.761Z,89
2023-03-26T02:21:14.830Z,88
2023-03-26T02:21:46.076Z,88
2023-03-26T02:22:17.178Z,88
2023-03-26T02:22:47.710Z,88
2023-03-26T02:23:19.005Z,88
2023-03-26T02:23:50.008Z,88
2023-03-26T02:24:20.783Z,88
2023-03-26T02:24:52.142Z,88
2023-03-26T02:25:23.424Z,88
2023-03-26T02:25:54.041Z,88
2023-03-26T02:26:25.186Z,88
2023-03-26T02:26:55.826Z,88
2023-03-26T02:27:26.881Z,88
2023-03-26T02:27:57.920Z,88
2023-03-26T02:28:28.892Z,88
2023-03-26T02:28:59.900Z,88
2023-03-26T02:29:30.776Z,87
2023-03-26T02:30:03.026Z,87
2023-03-26T02:30:32.738Z,87
2023-03-26T02:31:04.080Z,87
2023-03-26T02:31:35.137Z,87
2023-03-26T02:32:06.785Z,87
2023-03-26T02:32:37.026Z,87
2023-03-26T02:33:09.960Z,87
2023-03-26T02:33:39.045Z,87
2023-03-26T02:34:10.424Z,88
2023-03-26T02:34:40.991Z,87
2023-03-26T02:35:12.222Z,88
2023-03-26T02:35:43.168Z,88
2023-03-26T02:36:14.040Z,87
2023-03-26T02:36:45.669Z,87
2023-03-26T02:37:16.040Z,87
2023-03-26T02:37:46.930Z,88
2023-03-26T02:38:18.041Z,88
2023-03-26T02:38:49.062Z,88
2023-03-26T02:39:19.980Z,88
2023-03-26T02:39:51.023Z,88
2023-03-26T02:40:22.418Z,88
2023-03-26T02:40:53.063Z,87
2023-03-26T02:41:24.265Z,88
2023-03-26T02:41:55.207Z,88
2023-03-26T02:42:26.381Z,88
2023-03-26T02:42:56.791Z,88
2023-03-26T02:43:27.746Z,88
2023-03-26T02:43:58.824Z,88
2023-03-26T02:44:30.419Z,89
2023-03-26T02:45:01.906Z,89
2023-03-26T02:45:32.095Z,88
2023-03-26T02:46:03.203Z,88
2023-03-26T02:46:33.920Z,88
2023-03-26T02:47:05.007Z,88
2023-03-26T02:47:36.378Z,88
2023-03-26T02:48:07.028Z,88
2023-03-26T02:48:38.225Z,88
2023-03-26T02:49:08.981Z,88
2023-03-26T02:49:40.022Z,88
2023-03-26T02:50:12.200Z,88
2023-03-26T02:50:42.209Z,88
2023-03-26T02:51:13.207Z,88
2023-03-26T02:51:43.802Z,88
2023-03-26T02:52:14.787Z,88
2023-03-26T02:52:46.623Z,88
2023-03-26T02:53:17.057Z,88
2023-03-26T02:53:48.102Z,88
2023-03-26T02:54:19.229Z,87
2023-03-26T02:54:50.038Z,88
2023-03-26T02:55:21.264Z,88
2023-03-26T02:55:52.082Z,88
2023-03-26T02:56:23.052Z,87
2023-03-26T02:56:53.932Z,87
2023-03-26T02:57:25.242Z,88
2023-03-26T02:57:56.021Z,88
2023-03-26T02:58:27.266Z,88
2023-03-26T02:58:58.237Z,88
2023-03-26T02:59:29.010Z,89
2023-03-26T03:00:00.026Z,89
2023-03-26T03:00:31.929Z,88
2023-03-26T03:01:02.209Z,89
2023-03-26T03:01:33.203Z,88
2023-03-26T03:02:04.316Z,88
2023-03-26T03:02:35.439Z,89
2023-03-26T03:03:06.074Z,88
2023-03-26T03:03:38.839Z,89
2023-03-26T03:04:08.079Z,89
2023-03-26T03:04:40.398Z,89
2023-03-26T03:05:10.400Z,89
2023-03-26T03:05:40.952Z,89
2023-03-26T03:06:11.924Z,89
2023-03-26T03:06:43.207Z,89
2023-03-26T03:07:13.958Z,89
2023-03-26T03:07:45.706Z,89
2023-03-26T03:08:16.031Z,89
2023-03-26T03:08:46.881Z,89
2023-03-26T03:09:17.964Z,89
2023-03-26T03:09:49.255Z,89
2023-03-26T03:10:20.540Z,89
2023-03-26T03:10:50.950Z,89
2023-03-26T03:11:21.942Z,89
2023-03-26T03:11:53.245Z,89
2023-03-26T03:12:23.988Z,90
2023-03-26T03:12:54.856Z,89
2023-03-26T03:13:25.988Z,89
2023-03-26T03:13:57.260Z,89
2023-03-26T03:14:28.031Z,89
2023-03-26T03:14:59.062Z,89
2023-03-26T03:15:30.594Z,89
2023-03-26T03:16:01.331Z,89
2023-03-26T03:16:32.296Z,89
2023-03-26T03:17:02.971Z,89
2023-03-26T03:17:34.043Z,89
2023-03-26T03:18:05.076Z,89
2023-03-26T03:18:35.951Z,89
2023-03-26T03:19:07.182Z,89
2023-03-26T03:19:37.888Z,89
2023-03-26T03:20:09.539Z,88
2023-03-26T03:20:39.870Z,88
2023-03-26T03:21:11.324Z,88
2023-03-26T03:21:42.001Z,88
2023-03-26T03:22:13.253Z,88
2023-03-26T03:22:44.186Z,88
2023-03-26T03:23:15.104Z,88
2023-03-26T03:23:46.381Z,88
2023-03-26T03:24:17.509Z,88
2023-03-26T03:24:47.855Z,88
2023-03-26T03:25:19.799Z,88
2023-03-26T03:25:50.000Z,88
2023-03-26T03:26:21.045Z,88
2023-03-26T03:26:51.963Z,89
2023-03-26T03:27:22.991Z,89
2023-03-26T03:27:54.065Z,89
2023-03-26T03:28:24.924Z,89
2023-03-26T03:28:55.897Z,89
2023-03-26T03:29:27.163Z,89
2023-03-26T03:29:58.130Z,89
2023-03-26T03:30:29.826Z,89
2023-03-26T03:31:00.252Z,89
2023-03-26T03:31:31.217Z,89
2023-03-26T03:32:02.044Z,89
2023-03-26T03:32:33.103Z,89
2023-03-26T03:33:04.436Z,89
2023-03-26T03:33:34.990Z,89
2023-03-26T03:34:06.025Z,89
2023-03-26T03:34:37.337Z,89
2023-03-26T03:35:09.849Z,89
2023-03-26T03:35:39.094Z,90
2023-03-26T03:36:20.258Z,90
2023-03-26T03:36:41.060Z,90
2023-03-26T03:37:16.505Z,90
2023-03-26T03:37:42.963Z,90
2023-03-26T03:38:14.486Z,91
2023-03-26T03:38:45.245Z,91
2023-03-26T03:39:16.066Z,91
2023-03-26T03:39:47.061Z,91
2023-03-26T03:40:18.578Z,91
2023-03-26T03:40:49.138Z,92
2023-03-26T03:41:20.055Z,92
2023-03-26T03:41:50.988Z,92
2023-03-26T03:42:22.341Z,92
2023-03-26T03:42:53.222Z,92
2023-03-26T03:43:24.052Z,92
2023-03-26T03:43:55.321Z,92
2023-03-26T03:44:26.601Z,93
2023-03-26T03:44:56.972Z,93
2023-03-26T03:45:29.236Z,93
2023-03-26T03:45:59.124Z,93
2023-03-26T03:46:30.131Z,93
2023-03-26T03:47:01.410Z,93
2023-03-26T03:47:32.031Z,93
2023-03-26T03:48:03.139Z,93
2023-03-26T03:48:34.118Z,93
2023-03-26T03:49:05.062Z,93
2023-03-26T03:49:35.993Z,93
2023-03-26T03:50:07.220Z,93
2023-03-26T03:50:38.918Z,93
2023-03-26T03:51:09.489Z,93
2023-03-26T03:51:40.283Z,93
2023-03-26T03:52:11.098Z,93
2023-03-26T03:52:42.419Z,93
2023-03-26T03:53:13.375Z,93
2023-03-26T03:53:44.117Z,93
2023-03-26T03:54:15.063Z,93
2023-03-26T03:54:46.490Z,93
2023-03-26T03:55:17.617Z,93
2023-03-26T03:55:48.280Z,94
2023-03-26T03:56:19.487Z,94
2023-03-26T03:56:50.127Z,93
2023-03-26T03:57:21.332Z,93
2023-03-26T03:57:52.363Z,93
2023-03-26T03:58:23.405Z,93
2023-03-26T03:58:54.411Z,93
2023-03-26T03:59:25.491Z,93
2023-03-26T03:59:56.170Z,93
2023-03-26T04:00:27.906Z,92
2023-03-26T04:00:58.516Z,92
2023-03-26T04:01:29.336Z,92
2023-03-26T04:02:00.297Z,92
2023-03-26T04:02:31.457Z,92
2023-03-26T04:03:02.528Z,92
2023-03-26T04:03:34.551Z,92
2023-03-26T04:04:04.500Z,93
2023-03-26T04:04:35.628Z,93
2023-03-26T04:05:06.653Z,93
2023-03-26T04:05:37.205Z,93
2023-03-26T04:06:08.398Z,93
2023-03-26T04:06:40.038Z,93
2023-03-26T04:07:10.491Z,93
2023-03-26T04:07:43.462Z,93
2023-03-26T04:08:12.330Z,93
2023-03-26T04:08:43.391Z,93
2023-03-26T04:09:14.314Z,94
2023-03-26T04:09:45.369Z,94
2023-03-26T04:10:16.886Z,94
2023-03-26T04:10:47.346Z,94
2023-03-26T04:11:18.669Z,94
2023-03-26T04:11:49.370Z,94
2023-03-26T04:12:20.410Z,94
2023-03-26T04:12:51.177Z,94
2023-03-26T04:13:22.287Z,94
2023-03-26T04:13:53.295Z,94
2023-03-26T04:14:24.374Z,94
2023-03-26T04:14:55.427Z,94
2023-03-26T04:15:27.030Z,94
2023-03-26T04:15:57.785Z,94
2023-03-26T04:16:28.404Z,94
2023-03-26T04:16:59.528Z,94
2023-03-26T04:17:30.176Z,94
2023-03-26T04:18:01.459Z,94
2023-03-26T04:18:32.276Z,94
2023-03-26T04:19:03.809Z,94
2023-03-26T04:19:34.329Z,94
2023-03-26T04:20:05.806Z,94
2023-03-26T04:20:36.257Z,94
2023-03-26T04:21:07.631Z,94
2023-03-26T04:21:38.222Z,94
2023-03-26T04:22:09.723Z,94
2023-03-26T04:22:40.124Z,94
2023-03-26T04:23:11.220Z,94
2023-03-26T04:23:42.632Z,94
2023-03-26T04:24:13.304Z,94
2023-03-26T04:24:44.415Z,94
2023-03-26T04:25:15.842Z,94
2023-03-26T04:25:46.382Z,94
2023-03-26T04:26:17.133Z,94
2023-03-26T04:26:48.374Z,94
2023-03-26T04:27:19.155Z,94
2023-03-26T04:27:50.240Z,94
2023-03-26T04:28:21.341Z,94
2023-03-26T04:28:52.598Z,94
2023-03-26T04:29:23.196Z,95
2023-03-26T04:29:54.571Z,95
2023-03-26T04:30:26.445Z,95
2023-03-26T04:30:56.688Z,94
2023-03-26T04:31:27.432Z,94
2023-03-26T04:31:58.517Z,94
2023-03-26T04:32:29.582Z,94
2023-03-26T04:33:00.290Z,94
2023-03-26T04:33:31.310Z,94
2023-03-26T04:34:02.571Z,94
2023-03-26T04:34:33.751Z,94
2023-03-26T04:35:04.396Z,94
2023-03-26T04:35:35.208Z,94
2023-03-26T04:36:06.676Z,93
2023-03-26T04:36:37.493Z,93
2023-03-26T04:37:08.550Z,92
2023-03-26T04:37:39.661Z,92
2023-03-26T04:38:12.049Z,92
2023-03-26T04:38:41.690Z,92
2023-03-26T04:39:14.918Z,92
2023-03-26T04:39:43.516Z,92
2023-03-26T04:40:16.168Z,91
2023-03-26T04:40:45.459Z,91
2023-03-26T04:41:16.414Z,91
2023-03-26T04:41:47.622Z,91
2023-03-26T04:42:18.235Z,91
2023-03-26T04:42:49.127Z,91
2023-03-26T04:43:20.429Z,91
2023-03-26T04:43:51.241Z,91
2023-03-26T04:44:22.518Z,91
2023-03-26T04:44:53.215Z,91
2023-03-26T04:45:24.850Z,91
2023-03-26T04:45:55.595Z,91
2023-03-26T04:46:26.503Z,91
2023-03-26T04:46:57.221Z,91
2023-03-26T04:47:28.237Z,91
2023-03-26T04:47:59.276Z,91
2023-03-26T04:48:30.347Z,91
2023-03-26T04:49:01.417Z,91
2023-03-26T04:49:32.418Z,91
2023-03-26T04:50:03.794Z,91
2023-03-26T04:50:34.556Z,91
2023-03-26T04:51:05.209Z,91
2023-03-26T04:51:36.286Z,91
2023-03-26T04:52:07.244Z,91
2023-03-26T04:52:38.313Z,91
2023-03-26T04:53:10.026Z,91
2023-03-26T04:53:41.020Z,91
2023-03-26T04:54:11.306Z,91
2023-03-26T04:54:42.612Z,91
2023-03-26T04:55:13.592Z,91
2023-03-26T04:55:44.426Z,91
2023-03-26T04:56:15.267Z,91
2023-03-26T04:56:46.436Z,91
2023-03-26T04:57:17.314Z,90
2023-03-26T04:57:48.289Z,90
2023-03-26T04:58:19.324Z,90
2023-03-26T04:58:50.465Z,90
2023-03-26T04:59:21.826Z,90
2023-03-26T04:59:52.582Z,90
2023-03-26T05:00:24.148Z,90
2023-03-26T05:00:54.415Z,90
2023-03-26T05:01:25.484Z,90
2023-03-26T05:01:56.370Z,90
2023-03-26T05:02:27.440Z,90
2023-03-26T05:02:58.359Z,90
2023-03-26T05:03:29.185Z,90
2023-03-26T05:04:00.316Z,90
2023-03-26T05:04:31.497Z,90
2023-03-26T05:05:02.465Z,90
2023-03-26T05:05:33.505Z,90
2023-03-26T05:06:04.509Z,90
2023-03-26T05:06:35.615Z,90
2023-03-26T05:07:06.284Z,90
2023-03-26T05:07:37.721Z,90
2023-03-26T05:08:08.473Z,90
2023-03-26T05:08:39.835Z,90
2023-03-26T05:09:10.663Z,90
2023-03-26T05:09:42.762Z,91
2023-03-26T05:10:13.094Z,91
2023-03-26T05:10:45.128Z,91
2023-03-26T05:11:14.522Z,91
2023-03-26T05:11:45.718Z,91
2023-03-26T05:12:16.580Z,91
2023-03-26T05:12:47.305Z,91
2023-03-26T05:13:18.509Z,91
2023-03-26T05:13:49.674Z,91
2023-03-26T05:14:20.641Z,90
2023-03-26T05:14:51.686Z,90
2023-03-26T05:15:23.279Z,90
2023-03-26T05:15:53.235Z,90
2023-03-26T05:16:24.265Z,90
2023-03-26T05:16:55.453Z,90
2023-03-26T05:17:26.557Z,90
2023-03-26T05:17:57.551Z,90
2023-03-26T05:18:28.524Z,90
2023-03-26T05:18:59.750Z,90
2023-03-26T05:19:30.523Z,90
2023-03-26T05:20:01.655Z,90
2023-03-26T05:20:32.460Z,90
2023-03-26T05:21:03.289Z,89
2023-03-26T05:21:34.693Z,89
2023-03-26T05:22:05.348Z,89
2023-03-26T05:22:38.093Z,89
2023-03-26T05:23:07.471Z,90
2023-03-26T05:23:38.561Z,90
2023-03-26T05:24:09.782Z,90
2023-03-26T05:24:40.456Z,90
2023-03-26T05:25:11.903Z,90
2023-03-26T05:25:42.745Z,90
2023-03-26T05:26:13.698Z,90
2023-03-26T05:26:44.656Z,90
2023-03-26T05:27:15.400Z,89
2023-03-26T05:27:46.422Z,89
2023-03-26T05:28:17.551Z,89
2023-03-26T05:28:48.603Z,90
2023-03-26T05:29:19.776Z,90
2023-03-26T05:29:50.416Z,90
2023-03-26T05:30:21.981Z,90
2023-03-26T05:30:52.827Z,90
2023-03-26T05:31:23.582Z,90
2023-03-26T05:31:54.633Z,90
2023-03-26T05:32:25.651Z,90
2023-03-26T05:32:56.700Z,90
2023-03-26T05:33:27.613Z,90
2023-03-26T05:33:58.742Z,89
2023-03-26T05:34:29.926Z,89
2023-03-26T05:35:00.626Z,90
2023-03-26T05:35:31.754Z,90
2023-03-26T05:36:02.773Z,90
2023-03-26T05:36:33.736Z,90
2023-03-26T05:37:04.542Z,90
2023-03-26T05:37:35.467Z,90
2023-03-26T05:38:06.655Z,90
2023-03-26T05:38:37.827Z,89
2023-03-26T05:39:08.996Z,89
2023-03-26T05:39:39.428Z,89
2023-03-26T05:40:11.245Z,89
2023-03-26T05:40:41.573Z,90
2023-03-26T05:41:16.918Z,90
2023-03-26T05:41:43.642Z,90
2023-03-26T05:42:15.699Z,90
2023-03-26T05:42:45.734Z,90
2023-03-26T05:43:16.644Z,90
2023-03-26T05:43:48.042Z,90
2023-03-26T05:44:18.630Z,90
2023-03-26T05:44:49.685Z,90
2023-03-26T05:45:21.251Z,90
2023-03-26T05:45:51.721Z,90
2023-03-26T05:46:22.515Z,90
2023-03-26T05:46:53.749Z,90
2023-03-26T05:47:24.523Z,90
2023-03-26T05:47:55.558Z,90
2023-03-26T05:48:26.705Z,90
2023-03-26T05:48:58.302Z,90
2023-03-26T05:49:28.724Z,90
2023-03-26T05:49:59.800Z,90
2023-03-26T05:50:31.055Z,90
2023-03-26T05:51:01.721Z,90
2023-03-26T05:51:33.061Z,90
2023-03-26T05:52:03.475Z,90
2023-03-26T05:52:35.295Z,90
2023-03-26T05:53:05.476Z,90
2023-03-26T05:53:36.594Z,90
2023-03-26T05:54:07.877Z,90
2023-03-26T05:54:38.783Z,90
2023-03-26T05:55:09.966Z,90
2023-03-26T05:55:41.026Z,90
2023-03-26T05:56:11.850Z,90
2023-03-26T05:56:43.040Z,90
2023-03-26T05:57:13.882Z,90
2023-03-26T05:57:44.694Z,90
2023-03-26T05:58:15.770Z,90
2023-03-26T05:58:46.513Z,90
2023-03-26T05:59:17.842Z,90
2023-03-26T05:59:48.835Z,90
2023-03-26T06:00:20.687Z,90
2023-03-26T06:00:50.535Z,90
2023-03-26T06:01:21.732Z,90
2023-03-26T06:01:52.808Z,89
2023-03-26T06:02:23.847Z,88
2023-03-26T06:02:56.637Z,89
2023-03-26T06:03:26.017Z,89
2023-03-26T06:03:57.306Z,89
2023-03-26T06:04:27.569Z,89
2023-03-26T06:04:58.518Z,88
2023-03-26T06:05:29.800Z,88
2023-03-26T06:06:00.489Z,88
2023-03-26T06:06:33.189Z,88
2023-03-26T06:07:02.772Z,88
2023-03-26T06:07:33.901Z,88
2023-03-26T06:08:04.543Z,88
2023-03-26T06:08:35.864Z,88
2023-03-26T06:09:07.293Z,89
2023-03-26T06:09:37.712Z,89
2023-03-26T06:10:08.680Z,88
2023-03-26T06:10:39.825Z,88
2023-03-26T06:11:10.794Z,88
2023-03-26T06:11:41.740Z,88
2023-03-26T06:12:12.861Z,88
2023-03-26T06:12:45.632Z,88
2023-03-26T06:13:14.779Z,88
2023-03-26T06:13:47.944Z,88
2023-03-26T06:14:17.071Z,88
2023-03-26T06:14:47.496Z,88
2023-03-26T06:15:19.559Z,88
2023-03-26T06:15:49.618Z,88
2023-03-26T06:16:27.242Z,89
2023-03-26T06:16:51.765Z,88
2023-03-26T06:17:22.843Z,88
2023-03-26T06:17:53.711Z,88
2023-03-26T06:18:24.630Z,88
2023-03-26T06:18:56.342Z,88
2023-03-26T06:19:27.147Z,88
2023-03-26T06:19:57.734Z,89
2023-03-26T06:20:29.392Z,89
2023-03-26T06:20:59.559Z,89
2023-03-26T06:21:30.661Z,89
2023-03-26T06:22:01.732Z,89
2023-03-26T06:22:32.893Z,89
2023-03-26T06:23:03.914Z,89
2023-03-26T06:23:35.396Z,89
2023-03-26T06:24:06.122Z,89
2023-03-26T06:24:36.961Z,90
2023-03-26T06:25:07.812Z,90
2023-03-26T06:25:38.562Z,90
2023-03-26T06:26:09.577Z,90
2023-03-26T06:26:40.507Z,90
2023-03-26T06:27:11.887Z,90
2023-03-26T06:27:42.902Z,91
2023-03-26T06:28:13.957Z,91
2023-03-26T06:28:44.605Z,91
2023-03-26T06:29:16.053Z,91
2023-03-26T06:29:46.619Z,91
2023-03-26T06:30:18.537Z,91
2023-03-26T06:30:48.779Z,91
2023-03-26T06:31:19.821Z,92
2023-03-26T06:31:50.572Z,92
2023-03-26T06:32:22.000Z,92
2023-03-26T06:32:52.942Z,92
2023-03-26T06:33:24.671Z,92
2023-03-26T06:33:54.882Z,92
2023-03-26T06:34:25.550Z,92
2023-03-26T06:34:56.856Z,93
2023-03-26T06:35:28.480Z,93
2023-03-26T06:35:58.650Z,93
2023-03-26T06:36:30.048Z,93
2023-03-26T06:37:00.854Z,93
2023-03-26T06:37:31.829Z,93
2023-03-26T06:38:03.004Z,93
2023-03-26T06:38:33.749Z,93
2023-03-26T06:39:07.537Z,93
2023-03-26T06:39:35.812Z,93
2023-03-26T06:40:07.356Z,93
2023-03-26T06:40:37.944Z,93
2023-03-26T06:41:08.623Z,93
2023-03-26T06:41:39.664Z,93
2023-03-26T06:42:11.156Z,93
2023-03-26T06:43:09.271Z,93
2023-03-26T06:43:12.630Z,93
2023-03-26T06:43:43.685Z,93
2023-03-26T06:44:16.506Z,93
2023-03-26T06:44:45.860Z,93
2023-03-26T06:45:18.946Z,93
2023-03-26T06:45:48.022Z,93
2023-03-26T06:46:19.808Z,93
2023-03-26T06:46:50.049Z,93
2023-03-26T06:47:21.423Z,93
2023-03-26T06:47:52.025Z,93
2023-03-26T06:48:22.792Z,93
2023-03-26T06:48:54.049Z,93
2023-03-26T06:49:25.214Z,94
2023-03-26T06:49:55.987Z,94
2023-03-26T06:50:27.014Z,94
2023-03-26T06:50:57.997Z,94
2023-03-26T06:51:28.940Z,94
2023-03-26T06:51:59.580Z,94
2023-03-26T06:52:30.622Z,94
2023-03-26T06:53:01.665Z,94
2023-03-26T06:53:33.005Z,94
2023-03-26T06:54:04.218Z,94
2023-03-26T06:54:34.803Z,94
2023-03-26T06:55:05.939Z,94
2023-03-26T06:55:36.981Z,94
2023-03-26T06:56:09.253Z,94
2023-03-26T06:56:39.777Z,94
2023-03-26T06:57:11.336Z,94
2023-03-26T06:57:40.989Z,94
2023-03-26T06:58:12.231Z,94
2023-03-26T06:58:43.305Z,94
2023-03-26T06:59:14.385Z,94
2023-03-26T06:59:45.392Z,95
2023-03-26T07:00:18.456Z,95
2023-03-26T07:00:47.265Z,95
2023-03-26T07:01:18.326Z,95
2023-03-26T07:01:48.823Z,95
2023-03-26T07:02:19.997Z,95
2023-03-26T07:02:52.314Z,95
2023-03-26T07:03:22.505Z,95
2023-03-26T07:03:53.512Z,95
2023-03-26T07:04:24.154Z,95
2023-03-26T07:04:55.539Z,95
2023-03-26T07:05:27.644Z,95
2023-03-26T07:05:57.948Z,95
2023-03-26T07:06:28.431Z,95
2023-03-26T07:06:59.322Z,95
2023-03-26T07:07:30.451Z,96
2023-03-26T07:08:01.500Z,96
2023-03-26T07:08:32.795Z,96
2023-03-26T07:09:03.340Z,96
2023-03-26T07:09:33.847Z,96
2023-03-26T07:10:04.910Z,96
2023-03-26T07:10:35.809Z,96
2023-03-26T07:11:06.979Z,96
2023-03-26T07:11:37.961Z,96
2023-03-26T07:12:08.648Z,96
2023-03-26T07:12:40.113Z,96
2023-03-26T07:13:10.708Z,96
2023-03-26T07:13:41.952Z,96
2023-03-26T07:14:12.910Z,96
2023-03-26T07:14:44.071Z,96
2023-03-26T07:15:15.625Z,96
2023-03-26T07:15:48.368Z,96
2023-03-26T07:16:16.780Z,96
2023-03-26T07:16:50.054Z,96
2023-03-26T07:17:19.073Z,96
2023-03-26T07:17:50.951Z,97
2023-03-26T07:18:21.230Z,97
2023-03-26T07:18:51.967Z,97
2023-03-26T07:19:22.712Z,97
2023-03-26T07:19:54.032Z,97
2023-03-26T07:20:25.515Z,97
2023-03-26T07:20:56.298Z,97
2023-03-26T07:21:26.988Z,97
2023-03-26T07:21:57.965Z,97
2023-03-26T07:22:29.124Z,97
2023-03-26T07:22:59.977Z,97